sensor_id;sensor_type;location;lat;lon;timestamp;pressure;altitude;pressure_sealevel;temperature;humidity
15263;BME280;7733;51.554;13.590;2023-05-11T00:02:07;100227.41;;;16.85;73.37
15263;BME280;7733;51.554;13.590;2023-05-11T00:04:33;100228.09;;;16.68;73.79
15263;BME280;7733;51.554;13.590;2023-05-11T00:06:59;100222.28;;;16.15;77.94
15263;BME280;7733;51.554;13.590;2023-05-11T00:09:25;100232.59;;;16.66;74.20
15263;BME280;7733;51.554;13.590;2023-05-11T00:11:52;100224.00;;;16.82;72.03
15263;BME280;7733;51.554;13.590;2023-05-11T00:14:18;100222.28;;;16.59;73.91
15263;BME280;7733;51.554;13.590;2023-05-11T00:16:43;100229.06;;;16.66;72.48
15263;BME280;7733;51.554;13.590;2023-05-11T00:19:09;100225.56;;;16.65;71.97
15263;BME280;7733;51.554;13.590;2023-05-11T00:21:35;100229.69;;;16.72;71.60
15263;BME280;7733;51.554;13.590;2023-05-11T00:24:00;100229.06;;;16.66;71.65
15263;BME280;7733;51.554;13.590;2023-05-11T00:26:26;100225.63;;;16.64;71.26
15263;BME280;7733;51.554;13.590;2023-05-11T00:28:52;100221.28;;;16.61;71.62
15263;BME280;7733;51.554;13.590;2023-05-11T00:31:18;100223.41;;;16.53;71.63
15263;BME280;7733;51.554;13.590;2023-05-11T00:33:43;100218.38;;;16.47;71.83
15263;BME280;7733;51.554;13.590;2023-05-11T00:36:09;100219.22;;;16.48;72.06
15263;BME280;7733;51.554;13.590;2023-05-11T00:38:35;100215.91;;;16.42;71.65
15263;BME280;7733;51.554;13.590;2023-05-11T00:41:06;100211.34;;;16.46;71.34
15263;BME280;7733;51.554;13.590;2023-05-11T00:43:32;100216.88;;;16.40;71.75
15263;BME280;7733;51.554;13.590;2023-05-11T00:45:58;100219.16;;;15.10;80.36
15263;BME280;7733;51.554;13.590;2023-05-11T00:48:24;100220.66;;;14.93;81.48
15263;BME280;7733;51.554;13.590;2023-05-11T00:50:50;100219.44;;;14.76;83.43
15263;BME280;7733;51.554;13.590;2023-05-11T00:53:16;100221.00;;;15.08;81.35
15263;BME280;7733;51.554;13.590;2023-05-11T00:55:42;100223.22;;;15.19;80.30
15263;BME280;7733;51.554;13.590;2023-05-11T00:58:08;100222.03;;;15.52;77.18
15263;BME280;7733;51.554;13.590;2023-05-11T01:00:33;100225.69;;;15.73;75.11
15263;BME280;7733;51.554;13.590;2023-05-11T01:03:00;100220.91;;;15.83;74.26
15263;BME280;7733;51.554;13.590;2023-05-11T01:05:51;100222.63;;;15.84;74.33
15263;BME280;7733;51.554;13.590;2023-05-11T01:08:23;100224.38;;;15.85;74.29
15263;BME280;7733;51.554;13.590;2023-05-11T01:11:41;100216.66;;;15.79;74.64
15263;BME280;7733;51.554;13.590;2023-05-11T01:14:21;100214.84;;;15.79;73.91
15263;BME280;7733;51.554;13.590;2023-05-11T01:16:55;100220.81;;;15.86;73.14
15263;BME280;7733;51.554;13.590;2023-05-11T01:22:30;100228.16;;;15.78;73.14
15263;BME280;7733;51.554;13.590;2023-05-11T01:28:24;100233.63;;;15.48;73.87
15263;BME280;7733;51.554;13.590;2023-05-11T01:31:07;100234.03;;;15.63;72.50
15263;BME280;7733;51.554;13.590;2023-05-11T01:33:39;100227.03;;;15.62;71.68
15263;BME280;7733;51.554;13.590;2023-05-11T01:36:11;100228.97;;;15.55;72.67
15263;BME280;7733;51.554;13.590;2023-05-11T01:38:43;100225.06;;;15.17;74.38
15263;BME280;7733;51.554;13.590;2023-05-11T01:41:17;100225.28;;;15.36;73.42
15263;BME280;7733;51.554;13.590;2023-05-11T01:43:52;100233.38;;;15.31;72.73
15263;BME280;7733;51.554;13.590;2023-05-11T01:46:22;100237.69;;;15.34;72.11
15263;BME280;7733;51.554;13.590;2023-05-11T01:48:51;100233.38;;;15.31;72.42
15263;BME280;7733;51.554;13.590;2023-05-11T01:51:19;100238.22;;;15.18;72.68
15263;BME280;7733;51.554;13.590;2023-05-11T01:53:46;100235.81;;;15.12;73.09
15263;BME280;7733;51.554;13.590;2023-05-11T01:56:14;100245.03;;;15.26;71.85
15263;BME280;7733;51.554;13.590;2023-05-11T01:58:42;100239.19;;;15.16;72.66
15263;BME280;7733;51.554;13.590;2023-05-11T02:01:10;100243.50;;;15.18;71.94
15263;BME280;7733;51.554;13.590;2023-05-11T02:03:40;100241.66;;;15.22;71.08
15263;BME280;7733;51.554;13.590;2023-05-11T02:06:10;100248.84;;;15.17;71.11
15263;BME280;7733;51.554;13.590;2023-05-11T02:08:38;100244.31;;;15.20;71.35
15263;BME280;7733;51.554;13.590;2023-05-11T02:11:06;100250.16;;;15.05;72.98
15263;BME280;7733;51.554;13.590;2023-05-11T02:13:35;100252.13;;;14.99;72.54
15263;BME280;7733;51.554;13.590;2023-05-11T02:16:05;100251.47;;;14.38;76.04
15263;BME280;7733;51.554;13.590;2023-05-11T02:18:33;100253.31;;;14.08;79.55
15263;BME280;7733;51.554;13.590;2023-05-11T02:21:01;100249.50;;;14.72;75.19
15263;BME280;7733;51.554;13.590;2023-05-11T02:23:31;100247.78;;;14.71;75.59
15263;BME280;7733;51.554;13.590;2023-05-11T02:25:58;100252.84;;;14.77;75.02
15263;BME280;7733;51.554;13.590;2023-05-11T02:28:24;100250.84;;;14.85;73.55
15263;BME280;7733;51.554;13.590;2023-05-11T02:30:54;100247.69;;;14.74;73.67
15263;BME280;7733;51.554;13.590;2023-05-11T02:33:30;100249.13;;;14.84;72.91
15263;BME280;7733;51.554;13.590;2023-05-11T02:35:58;100250.16;;;14.79;72.84
15263;BME280;7733;51.554;13.590;2023-05-11T02:38:31;100249.28;;;14.78;72.75
15263;BME280;7733;51.554;13.590;2023-05-11T02:41:10;100254.91;;;14.69;72.93
15263;BME280;7733;51.554;13.590;2023-05-11T02:43:43;100252.22;;;14.71;72.47
15263;BME280;7733;51.554;13.590;2023-05-11T02:46:17;100253.19;;;14.68;72.05
15263;BME280;7733;51.554;13.590;2023-05-11T02:48:50;100257.44;;;14.72;71.68
15263;BME280;7733;51.554;13.590;2023-05-11T02:51:23;100254.69;;;14.75;71.34
15263;BME280;7733;51.554;13.590;2023-05-11T02:53:53;100248.72;;;14.70;71.72
15263;BME280;7733;51.554;13.590;2023-05-11T02:56:23;100257.22;;;14.52;72.72
15263;BME280;7733;51.554;13.590;2023-05-11T02:58:49;100254.28;;;14.61;72.42
15263;BME280;7733;51.554;13.590;2023-05-11T03:01:16;100254.31;;;14.59;72.14
15263;BME280;7733;51.554;13.590;2023-05-11T03:03:42;100255.91;;;14.65;71.47
15263;BME280;7733;51.554;13.590;2023-05-11T03:06:08;100255.59;;;14.48;72.14
15263;BME280;7733;51.554;13.590;2023-05-11T03:08:34;100258.84;;;14.56;71.53
15263;BME280;7733;51.554;13.590;2023-05-11T03:11:01;100259.50;;;14.35;72.86
15263;BME280;7733;51.554;13.590;2023-05-11T03:13:29;100271.69;;;14.11;74.55
15263;BME280;7733;51.554;13.590;2023-05-11T03:15:56;100263.25;;;13.98;74.94
15263;BME280;7733;51.554;13.590;2023-05-11T03:18:24;100270.22;;;14.00;74.60
15263;BME280;7733;51.554;13.590;2023-05-11T03:20:51;100267.06;;;14.17;73.45
15263;BME280;7733;51.554;13.590;2023-05-11T03:23:18;100265.84;;;14.29;72.85
15263;BME280;7733;51.554;13.590;2023-05-11T03:25:44;100269.75;;;14.16;73.26
15263;BME280;7733;51.554;13.590;2023-05-11T03:28:13;100267.47;;;14.05;73.58
15263;BME280;7733;51.554;13.590;2023-05-11T03:30:43;100262.91;;;14.10;73.01
15263;BME280;7733;51.554;13.590;2023-05-11T03:33:10;100267.16;;;14.14;72.29
15263;BME280;7733;51.554;13.590;2023-05-11T03:35:37;100266.22;;;14.17;72.48
15263;BME280;7733;51.554;13.590;2023-05-11T03:38:06;100266.84;;;14.25;72.41
15263;BME280;7733;51.554;13.590;2023-05-11T03:40:33;100265.44;;;14.13;73.02
15263;BME280;7733;51.554;13.590;2023-05-11T03:43:02;100266.69;;;14.29;71.98
15263;BME280;7733;51.554;13.590;2023-05-11T03:45:31;100258.84;;;14.28;72.05
15263;BME280;7733;51.554;13.590;2023-05-11T03:47:59;100268.69;;;14.21;72.82
15263;BME280;7733;51.554;13.590;2023-05-11T03:50:26;100270.16;;;13.73;75.80
15263;BME280;7733;51.554;13.590;2023-05-11T03:52:53;100262.84;;;14.12;73.71
15263;BME280;7733;51.554;13.590;2023-05-11T03:55:19;100260.44;;;13.75;75.56
15263;BME280;7733;51.554;13.590;2023-05-11T03:57:46;100266.09;;;13.92;75.03
15263;BME280;7733;51.554;13.590;2023-05-11T04:00:12;100258.69;;;14.05;74.58
15263;BME280;7733;51.554;13.590;2023-05-11T04:02:38;100263.16;;;14.03;75.82
15263;BME280;7733;51.554;13.590;2023-05-11T04:05:11;100260.34;;;14.07;75.68
15263;BME280;7733;51.554;13.590;2023-05-11T04:07:38;100260.47;;;14.04;75.68
15263;BME280;7733;51.554;13.590;2023-05-11T04:10:05;100264.22;;;14.25;74.59
15263;BME280;7733;51.554;13.590;2023-05-11T04:12:31;100258.06;;;14.24;74.80
15263;BME280;7733;51.554;13.590;2023-05-11T04:14:57;100262.03;;;14.38;74.22
15263;BME280;7733;51.554;13.590;2023-05-11T04:17:23;100267.88;;;13.60;79.27
15263;BME280;7733;51.554;13.590;2023-05-11T04:19:50;100259.66;;;13.42;81.40
15263;BME280;7733;51.554;13.590;2023-05-11T04:22:16;100271.91;;;13.43;83.12
15263;BME280;7733;51.554;13.590;2023-05-11T04:27:24;100266.34;;;14.12;76.60
15263;BME280;7733;51.554;13.590;2023-05-11T04:29:50;100271.38;;;13.92;79.21
15263;BME280;7733;51.554;13.590;2023-05-11T04:32:15;100264.47;;;13.88;80.04
15263;BME280;7733;51.554;13.590;2023-05-11T04:34:41;100270.91;;;14.07;79.76
15263;BME280;7733;51.554;13.590;2023-05-11T04:37:07;100263.50;;;14.18;79.38
15263;BME280;7733;51.554;13.590;2023-05-11T04:39:33;100277.72;;;14.44;77.55
15263;BME280;7733;51.554;13.590;2023-05-11T04:41:59;100273.34;;;14.43;77.22
15263;BME280;7733;51.554;13.590;2023-05-11T04:44:26;100272.03;;;13.98;80.22
15263;BME280;7733;51.554;13.590;2023-05-11T04:46:56;100276.09;;;14.38;78.03
15263;BME280;7733;51.554;13.590;2023-05-11T04:49:22;100274.38;;;14.09;79.57
15263;BME280;7733;51.554;13.590;2023-05-11T04:51:47;100276.88;;;14.42;79.13
15263;BME280;7733;51.554;13.590;2023-05-11T04:54:13;100279.41;;;14.73;76.02
15263;BME280;7733;51.554;13.590;2023-05-11T04:56:39;100278.59;;;14.71;76.56
15263;BME280;7733;51.554;13.590;2023-05-11T04:59:09;100289.53;;;14.86;75.73
15263;BME280;7733;51.554;13.590;2023-05-11T05:01:35;100283.31;;;14.61;78.58
15263;BME280;7733;51.554;13.590;2023-05-11T05:04:01;100281.94;;;14.76;77.82
15263;BME280;7733;51.554;13.590;2023-05-11T05:06:26;100281.47;;;15.16;75.67
15263;BME280;7733;51.554;13.590;2023-05-11T05:08:52;100287.47;;;15.21;74.79
15263;BME280;7733;51.554;13.590;2023-05-11T05:11:18;100290.09;;;15.21;74.66
15263;BME280;7733;51.554;13.590;2023-05-11T05:13:43;100289.22;;;15.22;74.30
15263;BME280;7733;51.554;13.590;2023-05-11T05:16:09;100286.66;;;15.19;73.73
15263;BME280;7733;51.554;13.590;2023-05-11T05:18:35;100288.38;;;15.20;73.63
15263;BME280;7733;51.554;13.590;2023-05-11T05:21:01;100281.66;;;15.36;72.59
15263;BME280;7733;51.554;13.590;2023-05-11T05:23:27;100293.78;;;15.17;73.27
15263;BME280;7733;51.554;13.590;2023-05-11T05:25:53;100293.34;;;15.29;72.32
15263;BME280;7733;51.554;13.590;2023-05-11T05:28:19;100289.56;;;15.63;70.78
15263;BME280;7733;51.554;13.590;2023-05-11T05:30:45;100293.22;;;15.57;71.51
15263;BME280;7733;51.554;13.590;2023-05-11T05:33:10;100287.78;;;15.63;71.71
15263;BME280;7733;51.554;13.590;2023-05-11T05:35:36;100290.56;;;15.59;71.38
15263;BME280;7733;51.554;13.590;2023-05-11T05:38:02;100293.19;;;15.84;70.06
15263;BME280;7733;51.554;13.590;2023-05-11T05:40:28;100292.78;;;15.94;69.73
15263;BME280;7733;51.554;13.590;2023-05-11T05:42:53;100296.59;;;15.87;70.43
15263;BME280;7733;51.554;13.590;2023-05-11T05:45:19;100292.38;;;15.81;69.79
15263;BME280;7733;51.554;13.590;2023-05-11T05:47:45;100299.22;;;16.10;68.41
15263;BME280;7733;51.554;13.590;2023-05-11T05:50:11;100297.78;;;16.25;67.47
15263;BME280;7733;51.554;13.590;2023-05-11T05:52:37;100295.81;;;16.30;67.62
15263;BME280;7733;51.554;13.590;2023-05-11T05:55:03;100305.97;;;16.41;66.49
15263;BME280;7733;51.554;13.590;2023-05-11T05:57:29;100297.94;;;16.44;66.23
15263;BME280;7733;51.554;13.590;2023-05-11T05:59:55;100301.22;;;16.72;65.39
15263;BME280;7733;51.554;13.590;2023-05-11T06:02:21;100305.16;;;16.61;66.25
15263;BME280;7733;51.554;13.590;2023-05-11T06:04:46;100306.94;;;16.62;66.00
15263;BME280;7733;51.554;13.590;2023-05-11T06:07:12;100307.19;;;16.78;65.78
15263;BME280;7733;51.554;13.590;2023-05-11T06:09:39;100309.28;;;16.69;65.75
15263;BME280;7733;51.554;13.590;2023-05-11T06:12:05;100316.72;;;17.03;64.71
15263;BME280;7733;51.554;13.590;2023-05-11T06:14:31;100307.38;;;17.15;63.74
15263;BME280;7733;51.554;13.590;2023-05-11T06:16:57;100306.00;;;17.27;63.61
15263;BME280;7733;51.554;13.590;2023-05-11T06:19:22;100309.16;;;17.15;63.34
15263;BME280;7733;51.554;13.590;2023-05-11T06:21:48;100312.03;;;17.51;62.58
15263;BME280;7733;51.554;13.590;2023-05-11T06:24:14;100305.94;;;17.49;60.87
15263;BME280;7733;51.554;13.590;2023-05-11T06:26:40;100306.44;;;17.57;59.88
15263;BME280;7733;51.554;13.590;2023-05-11T06:29:06;100309.56;;;17.67;59.69
15263;BME280;7733;51.554;13.590;2023-05-11T06:31:32;100310.66;;;17.83;59.89
15263;BME280;7733;51.554;13.590;2023-05-11T06:33:58;100304.66;;;17.17;61.41
15263;BME280;7733;51.554;13.590;2023-05-11T06:36:24;100314.16;;;17.63;59.27
15263;BME280;7733;51.554;13.590;2023-05-11T06:38:50;100303.63;;;18.01;58.57
15263;BME280;7733;51.554;13.590;2023-05-11T06:41:16;100304.19;;;17.88;59.20
15263;BME280;7733;51.554;13.590;2023-05-11T06:43:41;100309.66;;;18.04;58.72
15263;BME280;7733;51.554;13.590;2023-05-11T06:46:07;100306.34;;;17.99;58.16
15263;BME280;7733;51.554;13.590;2023-05-11T06:48:34;100304.41;;;18.21;58.22
15263;BME280;7733;51.554;13.590;2023-05-11T06:51:00;100296.75;;;18.34;57.50
15263;BME280;7733;51.554;13.590;2023-05-11T06:53:26;100303.84;;;18.34;57.20
15263;BME280;7733;51.554;13.590;2023-05-11T06:55:53;100294.72;;;18.39;57.94
15263;BME280;7733;51.554;13.590;2023-05-11T06:58:20;100302.84;;;18.36;57.12
15263;BME280;7733;51.554;13.590;2023-05-11T07:00:46;100305.47;;;18.55;57.28
15263;BME280;7733;51.554;13.590;2023-05-11T07:03:12;100300.72;;;18.62;56.88
15263;BME280;7733;51.554;13.590;2023-05-11T07:05:37;100303.13;;;18.68;56.91
15263;BME280;7733;51.554;13.590;2023-05-11T07:08:04;100296.44;;;18.95;55.92
15263;BME280;7733;51.554;13.590;2023-05-11T07:10:31;100299.41;;;18.89;55.72
15263;BME280;7733;51.554;13.590;2023-05-11T07:12:56;100296.00;;;19.04;55.57
15263;BME280;7733;51.554;13.590;2023-05-11T07:15:22;100298.19;;;19.13;55.68
15263;BME280;7733;51.554;13.590;2023-05-11T07:17:48;100301.91;;;18.92;56.25
15263;BME280;7733;51.554;13.590;2023-05-11T07:20:14;100298.75;;;19.03;55.70
15263;BME280;7733;51.554;13.590;2023-05-11T07:22:40;100287.16;;;19.04;55.98
15263;BME280;7733;51.554;13.590;2023-05-11T07:25:06;100290.50;;;18.90;56.67
15263;BME280;7733;51.554;13.590;2023-05-11T07:27:34;100296.38;;;19.49;55.60
15263;BME280;7733;51.554;13.590;2023-05-11T07:30:00;100293.97;;;19.27;55.22
15263;BME280;7733;51.554;13.590;2023-05-11T07:32:26;100293.81;;;19.64;54.32
15263;BME280;7733;51.554;13.590;2023-05-11T07:34:51;100282.38;;;19.62;54.89
15263;BME280;7733;51.554;13.590;2023-05-11T07:37:17;100287.94;;;19.58;54.43
15263;BME280;7733;51.554;13.590;2023-05-11T07:39:43;100294.06;;;20.09;53.54
15263;BME280;7733;51.554;13.590;2023-05-11T07:42:08;100292.75;;;20.00;52.93
15263;BME280;7733;51.554;13.590;2023-05-11T07:44:34;100284.53;;;20.36;53.44
15263;BME280;7733;51.554;13.590;2023-05-11T07:47:00;100288.31;;;20.16;51.72
15263;BME280;7733;51.554;13.590;2023-05-11T07:49:26;100296.81;;;20.39;52.61
15263;BME280;7733;51.554;13.590;2023-05-11T07:51:52;100292.28;;;20.72;51.87
15263;BME280;7733;51.554;13.590;2023-05-11T07:54:17;100284.69;;;20.80;52.23
15263;BME280;7733;51.554;13.590;2023-05-11T07:56:43;100291.63;;;20.99;51.67
15263;BME280;7733;51.554;13.590;2023-05-11T07:59:09;100295.44;;;20.94;50.31
15263;BME280;7733;51.554;13.590;2023-05-11T08:01:34;100291.94;;;21.24;49.91
15263;BME280;7733;51.554;13.590;2023-05-11T08:04:01;100282.25;;;21.37;49.32
15263;BME280;7733;51.554;13.590;2023-05-11T08:06:26;100296.06;;;21.14;48.48
15263;BME280;7733;51.554;13.590;2023-05-11T08:08:52;100285.47;;;21.42;47.77
15263;BME280;7733;51.554;13.590;2023-05-11T08:11:18;100293.88;;;21.20;47.81
15263;BME280;7733;51.554;13.590;2023-05-11T08:13:44;100290.88;;;21.71;47.48
15263;BME280;7733;51.554;13.590;2023-05-11T08:16:09;100293.50;;;21.42;46.46
15263;BME280;7733;51.554;13.590;2023-05-11T08:18:35;100296.81;;;21.32;47.88
15263;BME280;7733;51.554;13.590;2023-05-11T08:21:01;100292.56;;;21.58;45.75
15263;BME280;7733;51.554;13.590;2023-05-11T08:23:27;100287.06;;;21.75;46.38
15263;BME280;7733;51.554;13.590;2023-05-11T08:25:54;100295.06;;;21.89;45.89
15263;BME280;7733;51.554;13.590;2023-05-11T08:28:21;100292.88;;;21.81;46.33
15263;BME280;7733;51.554;13.590;2023-05-11T08:30:57;100290.69;;;22.16;45.16
15263;BME280;7733;51.554;13.590;2023-05-11T08:33:25;100289.00;;;22.42;43.95
15263;BME280;7733;51.554;13.590;2023-05-11T08:35:52;100282.03;;;22.54;44.22
15263;BME280;7733;51.554;13.590;2023-05-11T08:38:18;100285.66;;;22.53;45.42
15263;BME280;7733;51.554;13.590;2023-05-11T08:40:44;100285.41;;;22.70;45.85
15263;BME280;7733;51.554;13.590;2023-05-11T08:43:14;100283.69;;;22.96;45.19
15263;BME280;7733;51.554;13.590;2023-05-11T08:45:45;100278.13;;;22.87;43.90
15263;BME280;7733;51.554;13.590;2023-05-11T08:48:15;100279.50;;;23.32;42.83
15263;BME280;7733;51.554;13.590;2023-05-11T08:50:44;100278.97;;;23.52;42.84
15263;BME280;7733;51.554;13.590;2023-05-11T08:53:10;100280.44;;;23.18;42.14
15263;BME280;7733;51.554;13.590;2023-05-11T08:55:37;100272.63;;;23.41;41.85
15263;BME280;7733;51.554;13.590;2023-05-11T08:58:05;100279.84;;;23.53;41.50
15263;BME280;7733;51.554;13.590;2023-05-11T09:00:35;100271.66;;;23.42;41.29
15263;BME280;7733;51.554;13.590;2023-05-11T09:03:03;100268.59;;;23.48;40.94
15263;BME280;7733;51.554;13.590;2023-05-11T09:05:30;100273.00;;;23.74;41.20
15263;BME280;7733;51.554;13.590;2023-05-11T09:08:00;100281.75;;;23.51;41.02
15263;BME280;7733;51.554;13.590;2023-05-11T09:10:28;100279.44;;;23.59;40.18
15263;BME280;7733;51.554;13.590;2023-05-11T09:12:54;100279.00;;;24.03;40.05
15263;BME280;7733;51.554;13.590;2023-05-11T09:15:20;100279.25;;;24.37;40.57
15263;BME280;7733;51.554;13.590;2023-05-11T09:17:46;100273.13;;;23.85;41.46
15263;BME280;7733;51.554;13.590;2023-05-11T09:20:12;100278.78;;;23.93;39.47
15263;BME280;7733;51.554;13.590;2023-05-11T09:22:45;100268.91;;;23.94;39.44
15263;BME280;7733;51.554;13.590;2023-05-11T09:25:13;100268.16;;;23.79;39.18
15263;BME280;7733;51.554;13.590;2023-05-11T09:27:44;100270.63;;;24.08;39.79
15263;BME280;7733;51.554;13.590;2023-05-11T09:30:19;100264.97;;;24.36;38.48
15263;BME280;7733;51.554;13.590;2023-05-11T09:32:51;100272.63;;;24.17;37.51
15263;BME280;7733;51.554;13.590;2023-05-11T09:35:30;100276.91;;;24.32;37.67
15263;BME280;7733;51.554;13.590;2023-05-11T09:40:34;100272.53;;;24.55;36.07
15263;BME280;7733;51.554;13.590;2023-05-11T09:43:03;100277.97;;;24.66;36.59
15263;BME280;7733;51.554;13.590;2023-05-11T09:45:44;100275.84;;;24.58;37.13
15263;BME280;7733;51.554;13.590;2023-05-11T09:50:47;100276.66;;;24.48;37.68
15263;BME280;7733;51.554;13.590;2023-05-11T09:53:13;100279.72;;;24.54;37.29
15263;BME280;7733;51.554;13.590;2023-05-11T09:55:51;100278.38;;;24.36;37.22
15263;BME280;7733;51.554;13.590;2023-05-11T09:58:16;100286.69;;;24.57;36.23
15263;BME280;7733;51.554;13.590;2023-05-11T10:00:50;100280.78;;;24.65;36.50
15263;BME280;7733;51.554;13.590;2023-05-11T10:03:16;100270.75;;;25.14;36.21
15263;BME280;7733;51.554;13.590;2023-05-11T10:05:59;100279.69;;;24.31;37.68
15263;BME280;7733;51.554;13.590;2023-05-11T10:08:30;100282.53;;;24.77;36.03
15263;BME280;7733;51.554;13.590;2023-05-11T10:10:57;100269.97;;;25.36;36.18
15263;BME280;7733;51.554;13.590;2023-05-11T10:13:26;100277.75;;;25.28;34.52
15263;BME280;7733;51.554;13.590;2023-05-11T10:15:54;100266.44;;;24.77;35.40
15263;BME280;7733;51.554;13.590;2023-05-11T10:18:22;100264.94;;;25.32;35.05
15263;BME280;7733;51.554;13.590;2023-05-11T10:20:48;100273.22;;;24.70;35.72
15263;BME280;7733;51.554;13.590;2023-05-11T10:23:16;100266.69;;;24.61;36.13
15263;BME280;7733;51.554;13.590;2023-05-11T10:25:43;100262.63;;;24.68;35.32
15263;BME280;7733;51.554;13.590;2023-05-11T10:28:09;100264.16;;;25.07;34.94
15263;BME280;7733;51.554;13.590;2023-05-11T10:30:35;100259.34;;;24.76;35.87
15263;BME280;7733;51.554;13.590;2023-05-11T10:33:02;100254.91;;;24.87;36.10
15263;BME280;7733;51.554;13.590;2023-05-11T10:35:30;100256.97;;;24.84;35.62
15263;BME280;7733;51.554;13.590;2023-05-11T10:37:56;100257.03;;;24.82;35.87
15263;BME280;7733;51.554;13.590;2023-05-11T10:40:23;100248.16;;;25.06;36.22
15263;BME280;7733;51.554;13.590;2023-05-11T10:43:36;100241.75;;;25.42;35.58
15263;BME280;7733;51.554;13.590;2023-05-11T10:49:25;100245.59;;;24.33;34.28
15263;BME280;7733;51.554;13.590;2023-05-11T10:55:09;100248.06;;;24.83;34.72
15263;BME280;7733;51.554;13.590;2023-05-11T11:03:33;100253.97;;;24.15;34.33
15263;BME280;7733;51.554;13.590;2023-05-11T11:06:00;100248.38;;;24.18;32.97
15263;BME280;7733;51.554;13.590;2023-05-11T11:08:27;100252.31;;;24.38;32.30
15263;BME280;7733;51.554;13.590;2023-05-11T11:10:53;100244.97;;;24.29;32.69
15263;BME280;7733;51.554;13.590;2023-05-11T11:13:18;100248.63;;;24.03;33.29
15263;BME280;7733;51.554;13.590;2023-05-11T11:20:52;100237.66;;;24.18;32.37
15263;BME280;7733;51.554;13.590;2023-05-11T11:23:48;100238.34;;;24.70;32.71
15263;BME280;7733;51.554;13.590;2023-05-11T11:26:18;100254.09;;;24.74;31.46
15263;BME280;7733;51.554;13.590;2023-05-11T11:29:09;100241.72;;;25.20;30.60
15263;BME280;7733;51.554;13.590;2023-05-11T11:31:36;100256.84;;;25.09;30.56
15263;BME280;7733;51.554;13.590;2023-05-11T11:37:08;100257.00;;;25.41;30.43
15263;BME280;7733;51.554;13.590;2023-05-11T11:42:32;100262.03;;;25.00;29.55
15263;BME280;7733;51.554;13.590;2023-05-11T11:45:31;100267.81;;;25.06;30.76
15263;BME280;7733;51.554;13.590;2023-05-11T11:48:15;100259.06;;;24.92;30.20
15263;BME280;7733;51.554;13.590;2023-05-11T11:50:44;100255.41;;;25.28;30.33
15263;BME280;7733;51.554;13.590;2023-05-11T11:53:56;100262.78;;;25.48;30.42
15263;BME280;7733;51.554;13.590;2023-05-11T11:55:58;100263.53;;;25.04;30.79
15263;BME280;7733;51.554;13.590;2023-05-11T12:01:13;100265.16;;;24.94;31.06
15263;BME280;7733;51.554;13.590;2023-05-11T12:03:42;100275.38;;;24.28;31.30
15263;BME280;7733;51.554;13.590;2023-05-11T12:06:10;100274.00;;;24.35;30.96
15263;BME280;7733;51.554;13.590;2023-05-11T12:08:38;100279.16;;;24.62;30.79
15263;BME280;7733;51.554;13.590;2023-05-11T12:11:05;100267.31;;;24.41;31.57
15263;BME280;7733;51.554;13.590;2023-05-11T12:13:33;100273.69;;;24.27;31.78
15263;BME280;7733;51.554;13.590;2023-05-11T12:18:35;100268.34;;;24.02;31.83
15263;BME280;7733;51.554;13.590;2023-05-11T12:21:02;100272.72;;;24.28;31.78
15263;BME280;7733;51.554;13.590;2023-05-11T12:23:28;100275.97;;;24.08;32.17
15263;BME280;7733;51.554;13.590;2023-05-11T12:26:06;100276.56;;;24.61;32.56
15263;BME280;7733;51.554;13.590;2023-05-11T12:28:34;100278.50;;;24.35;31.55
15263;BME280;7733;51.554;13.590;2023-05-11T12:31:00;100276.03;;;24.44;31.77
15263;BME280;7733;51.554;13.590;2023-05-11T12:33:26;100273.72;;;24.02;32.34
15263;BME280;7733;51.554;13.590;2023-05-11T12:35:54;100276.22;;;23.79;32.75
15263;BME280;7733;51.554;13.590;2023-05-11T12:38:21;100274.16;;;24.08;32.03
15263;BME280;7733;51.554;13.590;2023-05-11T12:40:48;100269.97;;;24.53;32.34
15263;BME280;7733;51.554;13.590;2023-05-11T12:43:19;100278.59;;;24.20;32.37
15263;BME280;7733;51.554;13.590;2023-05-11T12:45:46;100281.59;;;24.41;32.45
15263;BME280;7733;51.554;13.590;2023-05-11T12:48:13;100273.94;;;24.11;33.69
15263;BME280;7733;51.554;13.590;2023-05-11T12:50:44;100287.00;;;24.16;33.22
15263;BME280;7733;51.554;13.590;2023-05-11T12:53:20;100276.34;;;24.40;33.48
15263;BME280;7733;51.554;13.590;2023-05-11T12:55:59;100271.53;;;24.32;32.77
15263;BME280;7733;51.554;13.590;2023-05-11T12:58:25;100272.50;;;24.18;32.54
15263;BME280;7733;51.554;13.590;2023-05-11T13:00:55;100277.72;;;24.45;32.89
15263;BME280;7733;51.554;13.590;2023-05-11T13:03:29;100273.66;;;24.40;32.09
15263;BME280;7733;51.554;13.590;2023-05-11T13:06:09;100270.66;;;24.44;32.43
15263;BME280;7733;51.554;13.590;2023-05-11T13:08:37;100276.84;;;23.95;32.27
15263;BME280;7733;51.554;13.590;2023-05-11T13:11:35;100276.25;;;24.16;31.67
15263;BME280;7733;51.554;13.590;2023-05-11T13:14:16;100273.03;;;24.36;30.72
15263;BME280;7733;51.554;13.590;2023-05-11T13:16:52;100265.09;;;24.35;30.61
15263;BME280;7733;51.554;13.590;2023-05-11T13:19:27;100269.69;;;24.69;30.18
15263;BME280;7733;51.554;13.590;2023-05-11T13:21:54;100261.59;;;25.17;30.46
15263;BME280;7733;51.554;13.590;2023-05-11T13:24:22;100255.19;;;25.42;30.62
15263;BME280;7733;51.554;13.590;2023-05-11T13:26:49;100249.59;;;25.56;29.29
15263;BME280;7733;51.554;13.590;2023-05-11T13:29:16;100249.88;;;25.64;28.73
15263;BME280;7733;51.554;13.590;2023-05-11T13:31:48;100244.47;;;25.53;29.25
15263;BME280;7733;51.554;13.590;2023-05-11T13:34:15;100246.75;;;25.24;30.00
15263;BME280;7733;51.554;13.590;2023-05-11T13:36:42;100247.38;;;25.28;29.44
15263;BME280;7733;51.554;13.590;2023-05-11T13:39:08;100243.50;;;25.43;30.28
15263;BME280;7733;51.554;13.590;2023-05-11T13:41:34;100256.84;;;25.21;29.52